Time;durP1;ratioP1;P1;durP2;ratioP2;P2;SDS_P1;SDS_P2;PMS_P1;PMS_P2;Temp;Humidity;BMP_temperature;BMP_pressure;BME280_temperature;BME280_humidity;BME280_pressure;Samples;Min_cycle;Max_cycle;Signal;HPM_P1;HPM_P2
2020/12/07 00:01:04;;;;;;;9.82;3.00;;;;;;;2.86;100.00;98435.66;5053758;28;20052;-77
2020/12/07 00:04:07;;;;;;;12.20;3.47;;;;;;;2.87;100.00;98428.94;5014380;28;20103;-77
2020/12/07 00:07:10;;;;;;;20.17;2.97;;;;;;;2.86;100.00;98434.88;5009006;28;20052;-77
2020/12/07 00:10:13;;;;;;;7.43;2.10;;;;;;;2.85;100.00;98428.66;5007471;28;20139;-77
2020/12/07 00:13:17;;;;;;;10.18;3.13;;;;;;;2.86;100.00;98423.88;5008608;28;20114;-76
2020/12/07 00:16:20;;;;;;;20.70;3.22;;;;;;;2.85;100.00;98423.16;5010917;28;20039;-77
2020/12/07 00:19:23;;;;;;;26.27;3.38;;;;;;;2.83;100.00;98420.09;5011150;28;20075;-77
2020/12/07 00:22:28;;;;;;;18.60;3.17;;;;;;;2.83;100.00;98420.09;5009457;28;20167;-78
2020/12/07 00:25:32;;;;;;;2.45;1.80;;;;;;;2.81;100.00;98417.03;5009679;28;20067;-78
2020/12/07 00:28:34;;;;;;;21.33;3.10;;;;;;;2.82;100.00;98412.28;5011543;28;20048;-78
2020/12/07 00:31:37;;;;;;;5.43;1.88;;;;;;;2.83;100.00;98419.31;5000497;28;20071;-79
2020/12/07 00:34:40;;;;;;;19.42;2.85;;;;;;;2.80;100.00;98415.50;5014074;28;20052;-77
2020/12/07 00:37:43;;;;;;;15.80;2.33;;;;;;;2.78;100.00;98406.94;5014434;28;20035;-77
2020/12/07 00:40:46;;;;;;;10.80;3.92;;;;;;;2.78;100.00;98406.94;5001235;28;20040;-78
2020/12/07 00:43:50;;;;;;;1.15;1.15;;;;;;;2.77;100.00;98405.41;4997195;28;20120;-80
2020/12/07 00:46:53;;;;;;;6.85;2.08;;;;;;;2.77;100.00;98405.41;5011141;28;20132;-79
2020/12/07 00:49:56;;;;;;;4.68;2.80;;;;;;;2.76;100.00;98397.63;5010099;28;20953;-79
2020/12/07 00:52:59;;;;;;;9.32;2.08;;;;;;;2.73;100.00;98396.56;5010259;28;20512;-80
2020/12/07 00:56:02;;;;;;;9.85;2.78;;;;;;;2.73;100.00;98390.31;5008618;28;20080;-79
2020/12/07 00:59:05;;;;;;;4.43;1.95;;;;;;;2.74;100.00;98400.06;5012511;28;20079;-80
2020/12/07 01:02:08;;;;;;;9.40;2.30;;;;;;;2.74;100.00;98392.59;5040062;28;20202;-79
2020/12/07 01:05:10;;;;;;;15.48;3.10;;;;;;;2.74;100.00;98395.34;5052320;28;20047;-79
2020/12/07 01:08:14;;;;;;;20.02;2.72;;;;;;;2.72;100.00;98392.28;5052158;28;20464;-79
2020/12/07 01:11:16;;;;;;;19.48;2.33;;;;;;;2.71;100.00;98393.50;5051733;28;20118;-80
2020/12/07 01:14:21;;;;;;;11.30;2.25;;;;;;;2.69;100.00;98393.22;5052087;28;20071;-80
2020/12/07 01:17:24;;;;;;;11.23;2.28;;;;;;;2.70;100.00;98380.22;5052233;28;20067;-80
2020/12/07 01:20:27;;;;;;;5.68;1.85;;;;;;;2.69;100.00;98386.94;5051969;28;20056;-79
2020/12/07 01:23:30;;;;;;;15.77;2.70;;;;;;;2.66;100.00;98379.63;5052291;28;20127;-79
2020/12/07 01:26:34;;;;;;;15.05;2.63;;;;;;;2.67;100.00;98389.38;5052021;28;20048;-80
2020/12/07 01:29:38;;;;;;;32.05;2.90;;;;;;;2.64;100.00;98377.31;5052140;28;20083;-79
2020/12/07 01:32:41;;;;;;;0.55;0.55;;;;;;;2.63;100.00;98377.78;5052708;28;20052;-79
2020/12/07 01:35:43;;;;;;;15.25;2.72;;;;;;;2.63;100.00;98383.28;5052127;28;20417;-79
2020/12/07 01:38:47;;;;;;;9.00;3.60;;;;;;;2.63;100.00;98373.06;5051948;28;20052;-79
2020/12/07 01:41:50;;;;;;;9.50;3.05;;;;;;;2.62;100.00;98368.78;5052152;28;20576;-80
2020/12/07 01:44:53;;;;;;;3.17;1.83;;;;;;;2.61;100.00;98375.50;5051691;28;20516;-79
2020/12/07 01:47:56;;;;;;;2.53;1.15;;;;;;;2.59;100.00;98366.97;5052088;28;20099;-79
2020/12/07 01:51:00;;;;;;;13.77;2.80;;;;;;;2.61;100.00;98372.75;5051732;28;20079;-79
2020/12/07 01:54:03;;;;;;;9.45;2.40;;;;;;;2.60;100.00;98373.97;5039712;28;20508;-78
2020/12/07 01:57:06;;;;;;;2.00;0.90;;;;;;;2.59;100.00;98377.19;5051633;28;20127;-79
2020/12/07 02:00:09;;;;;;;20.33;4.35;;;;;;;2.58;100.00;98381.16;5051684;28;20052;-79
2020/12/07 02:03:12;;;;;;;10.43;2.75;;;;;;;2.59;100.00;98383.44;5051941;28;20052;-79
2020/12/07 02:06:15;;;;;;;9.85;2.35;;;;;;;2.57;100.00;98374.13;5051689;28;20140;-80
2020/12/07 02:09:17;;;;;;;14.23;3.55;;;;;;;2.55;100.00;98366.34;5051602;28;20094;-79
2020/12/07 02:12:20;;;;;;;10.73;2.45;;;;;;;2.56;100.00;98356.09;5055554;28;20043;-79
2020/12/07 02:15:23;;;;;;;13.40;2.20;;;;;;;2.55;100.00;98358.09;5055365;28;20064;-79
2020/12/07 02:18:26;;;;;;;5.53;1.20;;;;;;;2.54;100.00;98347.56;5055480;28;20118;-80
2020/12/07 02:21:29;;;;;;;12.75;2.90;;;;;;;2.54;100.00;98347.56;5055528;28;20048;-79
2020/12/07 02:24:32;;;;;;;15.90;3.30;;;;;;;2.52;100.00;98344.50;5055396;28;20048;-79
2020/12/07 02:27:34;;;;;;;5.85;2.22;;;;;;;2.50;100.00;98335.97;5055457;28;20044;-80
2020/12/07 02:30:37;;;;;;;1.88;1.70;;;;;;;2.51;100.00;98338.25;5055303;28;20189;-79
2020/12/07 02:33:40;;;;;;;14.20;2.60;;;;;;;2.51;100.00;98332.78;5055381;28;20052;-79
2020/12/07 02:36:43;;;;;;;5.30;2.33;;;;;;;2.49;100.00;98335.19;5054425;28;20175;-79
2020/12/07 02:39:46;;;;;;;14.65;4.03;;;;;;;2.47;100.00;98325.91;5055080;28;20091;-79
2020/12/07 02:42:49;;;;;;;12.02;2.47;;;;;;;2.43;100.00;98336.25;5055421;28;20106;-79
2020/12/07 02:45:52;;;;;;;9.65;2.30;;;;;;;2.41;100.00;98331.22;5055273;28;20503;-80
2020/12/07 02:48:54;;;;;;;6.95;3.30;;;;;;;2.40;100.00;98332.47;5054635;28;20094;-79
2020/12/07 02:51:57;;;;;;;24.17;3.70;;;;;;;2.39;100.00;98322.69;5054226;28;20508;-80
2020/12/07 02:55:03;;;;;;;12.93;1.85;;;;;;;2.35;100.00;98324.81;5054727;28;20047;-80
2020/12/07 02:58:06;;;;;;;10.75;3.15;;;;;;;2.32;100.00;98314.72;5055015;28;20131;-79
2020/12/07 03:01:09;;;;;;;21.13;2.95;;;;;;;2.33;100.00;98310.00;5055138;28;20087;-80
2020/12/07 03:04:11;;;;;;;5.47;2.83;;;;;;;2.33;100.00;98310.78;5055315;28;20062;-80
2020/12/07 03:07:15;;;;;;;15.23;1.85;;;;;;;2.34;100.00;98309.53;5054873;28;20052;-80
2020/12/07 03:10:18;;;;;;;16.88;1.80;;;;;;;2.33;100.00;98299.78;5054309;28;20139;-80
2020/12/07 03:13:20;;;;;;;10.48;2.13;;;;;;;2.31;100.00;98302.25;5054609;28;20535;-79
2020/12/07 03:16:23;;;;;;;6.25;2.58;;;;;;;2.29;100.00;98299.97;5054524;28;20048;-79
2020/12/07 03:19:26;;;;;;;4.88;2.17;;;;;;;2.26;100.00;98294.59;5054205;28;20048;-79
2020/12/07 03:22:29;;;;;;;4.97;1.83;;;;;;;2.25;100.00;98290.34;5054265;28;20581;-79
2020/12/07 03:25:32;;;;;;;9.10;2.45;;;;;;;2.25;100.00;98295.84;5054359;28;20417;-79
2020/12/07 03:28:35;;;;;;;17.17;1.15;;;;;;;2.25;100.00;98293.09;5041940;28;20055;-79
2020/12/07 03:31:39;;;;;;;11.55;3.47;;;;;;;2.24;100.00;98297.81;5041885;28;20106;-79
2020/12/07 03:34:42;;;;;;;7.88;2.08;;;;;;;2.26;100.00;98295.38;5053967;28;20059;-79
2020/12/07 03:37:44;;;;;;;5.05;1.58;;;;;;;2.25;100.00;98282.09;5054065;28;20506;-80
2020/12/07 03:40:47;;;;;;;8.82;2.30;;;;;;;2.23;100.00;98273.56;5054225;28;20067;-79
2020/12/07 03:43:50;;;;;;;4.82;2.28;;;;;;;2.23;100.00;98279.78;5054365;28;20044;-79
2020/12/07 03:46:53;;;;;;;8.30;2.88;;;;;;;2.23;100.00;98284.53;5054261;28;20111;-79
2020/12/07 03:49:56;;;;;;;5.78;2.50;;;;;;;2.24;100.00;98294.28;5053892;28;20039;-79
2020/12/07 03:52:59;;;;;;;18.73;2.25;;;;;;;2.24;100.00;98291.56;5053660;28;20044;-79
2020/12/07 03:56:04;;;;;;;9.32;2.67;;;;;;;2.21;100.00;98282.25;5053638;28;20052;-79
2020/12/07 03:59:07;;;;;;;6.13;3.15;;;;;;;2.22;100.00;98283.78;5054028;28;20464;-80
2020/12/07 04:02:10;;;;;;;17.83;2.30;;;;;;;2.22;100.00;98283.78;5053806;28;20056;-79
2020/12/07 04:05:29;;;;;;;6.40;1.77;;;;;;;2.23;100.00;98281.81;5053874;28;20094;-79
2020/12/07 04:08:32;;;;;;;5.80;2.33;;;;;;;2.22;100.00;98281.03;5041382;28;20095;-78
2020/12/07 04:11:35;;;;;;;29.92;3.97;;;;;;;2.21;100.00;98281.47;5053341;28;20056;-79
2020/12/07 04:14:37;;;;;;;3.67;1.80;;;;;;;2.21;100.00;98281.47;5053627;28;20059;-79
2020/12/07 04:17:40;;;;;;;8.25;1.63;;;;;;;2.18;100.00;98274.16;5053290;28;20118;-80
2020/12/07 04:20:43;;;;;;;14.35;2.13;;;;;;;2.19;100.00;98283.91;5053205;28;20052;-79
2020/12/07 04:23:46;;;;;;;5.95;2.08;;;;;;;2.19;100.00;98284.69;5053527;28;20056;-79
2020/12/07 04:26:49;;;;;;;7.28;2.85;;;;;;;2.19;100.00;98278.41;5040510;28;20098;-79
2020/12/07 04:29:51;;;;;;;9.48;2.55;;;;;;;2.17;100.00;98278.88;5053029;28;20045;-79
2020/12/07 04:32:55;;;;;;;5.85;2.92;;;;;;;2.17;100.00;98275.38;5052345;28;20064;-79
2020/12/07 04:35:57;;;;;;;21.90;3.30;;;;;;;2.15;100.00;98278.59;5052797;28;20048;-80
2020/12/07 04:39:00;;;;;;;28.73;2.92;;;;;;;2.16;100.00;98262.88;5053034;28;20508;-78
2020/12/07 04:42:03;;;;;;;1.92;1.77;;;;;;;2.16;100.00;98257.38;5052902;28;20101;-79
2020/12/07 04:45:07;;;;;;;6.90;2.25;;;;;;;2.16;100.00;98262.88;5040540;28;20103;-79
2020/12/07 04:48:12;;;;;;;4.65;2.55;;;;;;;2.14;100.00;98259.81;5052968;28;20052;-79
2020/12/07 04:51:15;;;;;;;13.32;2.53;;;;;;;2.13;100.00;98255.53;5052712;28;20051;-79
2020/12/07 04:54:19;;;;;;;9.88;2.25;;;;;;;2.14;100.00;98251.59;5052696;28;20110;-80
2020/12/07 04:57:22;;;;;;;18.02;2.00;;;;;;;2.11;100.00;98257.97;5052335;28;20056;-79
2020/12/07 05:00:26;;;;;;;6.72;1.42;;;;;;;2.12;100.00;98254.03;5052484;28;20150;-79
2020/12/07 05:03:29;;;;;;;14.30;2.97;;;;;;;2.10;100.00;98250.97;5052732;28;20052;-79
2020/12/07 05:06:32;;;;;;;6.85;1.25;;;;;;;2.08;100.00;98251.41;5052676;28;20048;-79
2020/12/07 05:09:36;;;;;;;11.70;2.95;;;;;;;2.06;100.00;98253.09;5052689;28;20134;-79
2020/12/07 05:12:44;;;;;;;7.25;2.72;;;;;;;2.04;100.00;98250.81;5052504;28;20555;-79
2020/12/07 05:15:47;;;;;;;16.45;3.03;;;;;;;2.03;100.00;98254.03;5032601;28;20045;-79
2020/12/07 05:18:50;;;;;;;6.65;1.50;;;;;;;2.03;100.00;98254.03;5032361;28;20118;-79
2020/12/07 05:21:53;;;;;;;13.05;2.28;;;;;;;2.03;100.00;98248.53;5032340;28;20065;-79
2020/12/07 05:24:56;;;;;;;4.90;2.00;;;;;;;2.00;100.00;98241.19;5032286;28;20099;-80
2020/12/07 05:28:00;;;;;;;3.70;1.80;;;;;;;2.01;100.00;98242.75;5032288;28;20073;-79
2020/12/07 05:31:03;;;;;;;12.07;3.10;;;;;;;2.01;100.00;98246.25;5031948;28;20045;-79
2020/12/07 05:34:06;;;;;;;19.50;3.50;;;;;;;1.99;100.00;98248.66;5032360;28;20506;-79
2020/12/07 05:37:08;;;;;;;8.90;1.52;;;;;;;2.00;100.00;98246.69;5032260;28;20496;-79
2020/12/07 05:40:14;;;;;;;11.70;2.65;;;;;;;1.97;100.00;98251.09;5032250;28;20052;-78
2020/12/07 05:43:20;;;;;;;6.55;2.88;;;;;;;1.98;100.00;98247.16;5031659;28;20049;-79
2020/12/07 05:46:27;;;;;;;10.02;2.83;;;;;;;1.98;100.00;98246.38;5031627;28;20136;-79
2020/12/07 05:49:30;;;;;;;3.67;1.92;;;;;;;1.97;100.00;98247.63;5032012;28;20056;-79
2020/12/07 05:52:46;;;;;;;9.57;3.10;;;;;;;1.97;100.00;98255.84;5032219;28;20138;-79
2020/12/07 05:55:49;;;;;;;10.25;2.58;;;;;;;1.96;100.00;98248.81;5031872;28;20144;-80
2020/12/07 05:59:15;;;;;;;14.68;3.05;;;;;;;1.96;100.00;98235.09;5032154;28;20141;-79
2020/12/07 06:02:21;;;;;;;12.63;2.30;;;;;;;1.95;100.00;98248.06;5031367;28;20071;-79
2020/12/07 06:05:24;;;;;;;14.75;3.13;;;;;;;1.95;100.00;98244.56;5031776;28;20099;-79
2020/12/07 06:08:34;;;;;;;9.57;2.90;;;;;;;1.96;100.00;98246.09;5032131;28;20045;-79
2020/12/07 06:11:47;;;;;;;10.90;4.25;;;;;;;1.95;100.00;98247.31;5031655;28;20061;-80
2020/12/07 06:14:51;;;;;;;9.95;1.90;;;;;;;1.92;100.00;98231.75;5046198;28;20090;-79
2020/12/07 06:17:53;;;;;;;14.00;4.05;;;;;;;1.92;100.00;98231.75;5051692;28;20060;-79
2020/12/07 06:21:01;;;;;;;15.80;3.45;;;;;;;1.89;100.00;98218.94;5051727;28;20055;-80
2020/12/07 06:24:05;;;;;;;6.85;1.98;;;;;;;1.89;100.00;98221.69;5051636;28;20119;-78
2020/12/07 06:27:13;;;;;;;11.80;3.10;;;;;;;1.89;100.00;98211.47;5051627;28;20043;-79
2020/12/07 06:30:18;;;;;;;6.60;1.50;;;;;;;1.89;100.00;98207.94;5051524;28;20677;-79
2020/12/07 06:33:22;;;;;;;16.27;4.47;;;;;;;1.88;100.00;98215.44;5039357;28;20144;-80
2020/12/07 06:36:29;;;;;;;6.80;1.48;;;;;;;1.86;100.00;98200.66;5051332;28;20105;-79
2020/12/07 06:39:44;;;;;;;13.02;4.78;;;;;;;1.86;100.00;98197.91;5051648;28;20095;-79
2020/12/07 06:42:48;;;;;;;18.80;3.47;;;;;;;1.86;100.00;98201.41;5051851;28;20101;-79
2020/12/07 06:45:51;;;;;;;11.13;3.95;;;;;;;1.87;100.00;98207.66;5051320;28;20048;-79
2020/12/07 06:48:55;;;;;;;10.52;1.90;;;;;;;1.86;100.00;98201.41;5051168;28;20407;-78
2020/12/07 06:52:07;;;;;;;5.30;1.88;;;;;;;1.87;100.00;98210.38;5051242;28;20106;-79
2020/12/07 06:55:11;;;;;;;;;;;;;;;1.85;100.00;98210.09;5051452;28;20056;-79
2020/12/07 06:58:40;;;;;;;16.48;4.85;;;;;;;1.86;100.00;98204.16;5054896;28;19966;-79
2020/12/07 07:01:52;;;;;;;10.52;2.78;;;;;;;1.86;100.00;98212.41;5054480;28;20099;-79
2020/12/07 07:04:56;;;;;;;10.63;2.17;;;;;;;1.86;100.00;98211.63;5054845;28;20094;-79
2020/12/07 07:07:59;;;;;;;9.15;3.55;;;;;;;1.85;100.00;98205.38;5054780;28;20105;-79
2020/12/07 07:11:05;;;;;;;8.20;2.70;;;;;;;1.87;100.00;98213.13;5054460;28;20052;-79
2020/12/07 07:14:08;;;;;;;16.38;3.75;;;;;;;1.84;100.00;98197.59;5054810;28;20040;-79
2020/12/07 07:17:11;;;;;;;6.63;2.58;;;;;;;1.83;100.00;98204.28;5042546;28;20110;-79
2020/12/07 07:20:15;;;;;;;15.55;4.22;;;;;;;1.85;100.00;98201.84;5054131;28;20048;-79
2020/12/07 07:23:18;;;;;;;8.27;1.85;;;;;;;1.83;100.00;98201.56;5054694;28;20048;-79
2020/12/07 07:26:27;;;;;;;19.30;3.25;;;;;;;1.82;100.00;98189.06;5054306;28;20119;-79
2020/12/07 07:29:31;;;;;;;7.90;2.38;;;;;;;1.83;100.00;98198.81;5054883;28;20408;-79
2020/12/07 07:32:35;;;;;;;4.43;2.38;;;;;;;1.84;100.00;98198.34;5055138;28;20437;-79
2020/12/07 07:35:38;;;;;;;22.00;5.10;;;;;;;1.83;100.00;98202.31;5054269;28;20114;-79
2020/12/07 07:38:41;;;;;;;7.13;3.28;;;;;;;1.83;100.00;98207.03;5054318;28;20044;-79
2020/12/07 07:41:45;;;;;;;8.65;2.60;;;;;;;1.80;100.00;98203.22;5055384;28;20052;-79
2020/12/07 07:44:48;;;;;;;5.68;3.05;;;;;;;1.80;100.00;98203.22;5055137;28;20064;-79
2020/12/07 08:18:06;;;;;;;14.32;3.15;;;;;;;1.75;100.00;98189.34;5053711;28;20098;-79
2020/12/07 08:21:10;;;;;;;12.05;2.47;;;;;;;1.75;100.00;98189.34;5053546;28;20126;-79
2020/12/07 08:24:12;;;;;;;10.25;4.07;;;;;;;1.73;100.00;98180.81;5053613;28;20064;-79
2020/12/07 08:27:15;;;;;;;6.78;3.13;;;;;;;1.73;100.00;98203.53;5053037;28;20103;-80
2020/12/07 08:30:18;;;;;;;14.38;2.63;;;;;;;1.70;100.00;98204.44;5053054;28;20135;-78
2020/12/07 08:33:21;;;;;;;14.65;4.07;;;;;;;1.70;100.00;98198.97;5052972;28;20052;-79
2020/12/07 08:36:26;;;;;;;18.77;3.78;;;;;;;1.72;100.00;98206.72;5052997;28;20139;-79
2020/12/07 08:39:29;;;;;;;13.15;3.83;;;;;;;1.75;100.00;98198.38;5053404;28;20055;-78
2020/12/07 08:42:32;;;;;;;17.70;3.25;;;;;;;1.78;100.00;98210.38;5053220;28;20040;-80
2020/12/07 08:45:35;;;;;;;6.68;2.80;;;;;;;1.80;100.00;98207.97;5052742;28;20586;-81
2020/12/07 08:48:39;;;;;;;10.63;2.53;;;;;;;1.82;100.00;98211.75;5052781;28;20052;-77
2020/12/07 08:51:42;;;;;;;6.70;2.35;;;;;;;1.85;100.00;98210.84;5052748;28;20140;-77
2020/12/07 08:54:45;;;;;;;12.10;2.53;;;;;;;1.85;100.00;98204.59;5052760;28;20132;-76
2020/12/07 08:57:48;;;;;;;8.88;2.65;;;;;;;1.88;100.00;98192.72;5052885;28;20178;-77
2020/12/07 09:00:51;;;;;;;6.55;2.00;;;;;;;1.95;100.00;98200.66;5052590;28;20107;-77
2020/12/07 09:03:54;;;;;;;7.10;2.35;;;;;;;1.99;100.00;98204.75;5052919;28;20048;-77
2020/12/07 09:06:57;;;;;;;30.85;2.90;;;;;;;2.06;100.00;98201.69;5052831;28;20405;-79
2020/12/07 09:09:59;;;;;;;9.13;3.33;;;;;;;2.11;100.00;98200.31;5052434;28;20071;-79
2020/12/07 09:13:04;;;;;;;6.13;3.28;;;;;;;2.18;100.00;98197.28;5052697;28;20459;-79
2020/12/07 09:16:08;;;;;;;13.80;3.88;;;;;;;2.23;100.00;98202.16;5032028;28;20052;-80
2020/12/07 09:19:10;;;;;;;6.57;3.22;;;;;;;2.26;100.00;98210.22;5032684;28;20049;-79
2020/12/07 09:22:13;;;;;;;11.85;3.83;;;;;;;2.32;100.00;98204.88;5032529;28;20068;-79
2020/12/07 09:25:16;;;;;;;11.85;2.40;;;;;;;2.36;100.00;98210.22;5032332;28;20561;-80
2020/12/07 09:28:19;;;;;;;13.18;4.32;;;;;;;2.39;100.00;98193.56;5020255;28;20060;-81
2020/12/07 09:31:22;;;;;;;10.88;3.22;;;;;;;2.45;100.00;98202.72;5031755;28;20048;-79
2020/12/07 09:34:25;;;;;;;22.08;3.78;;;;;;;2.46;100.00;98196.00;5032630;28;20049;-79
2020/12/07 09:37:28;;;;;;;2.42;1.42;;;;;;;2.52;100.00;98207.91;5020133;28;20055;-79
2020/12/07 09:40:30;;;;;;;5.03;2.80;;;;;;;2.55;100.00;98201.50;5032759;28;20405;-78
2020/12/07 09:43:34;;;;;;;8.32;3.13;;;;;;;2.62;100.00;98201.16;5032178;28;20410;-77
2020/12/07 09:46:37;;;;;;;17.95;2.22;;;;;;;2.66;100.00;98206.50;5032246;28;20049;-78
2020/12/07 09:49:39;;;;;;;11.82;2.25;;;;;;;2.71;100.00;98198.38;5032137;28;20084;-79
2020/12/07 09:52:42;;;;;;;15.70;3.58;;;;;;;2.75;100.00;98209.97;5031956;28;20126;-78
2020/12/07 09:55:46;;;;;;;13.25;3.67;;;;;;;2.74;100.00;98202.97;5032149;28;20099;-78
2020/12/07 09:58:50;;;;;;;7.30;2.13;;;;;;;2.69;100.00;98195.34;5032125;28;20103;-78
2020/12/07 10:01:53;;;;;;;14.23;2.38;;;;;;;2.68;100.00;98210.31;5033540;28;20108;-78
2020/12/07 10:04:56;;;;;;;15.02;3.03;;;;;;;2.74;100.00;98207.69;5049462;28;20095;-77
2020/12/07 10:07:59;;;;;;;20.35;3.35;;;;;;;2.79;100.00;98207.84;5051805;28;20044;-78
2020/12/07 10:11:01;;;;;;;4.03;2.63;;;;;;;2.83;100.00;98207.66;5051513;28;20087;-78
2020/12/07 10:14:04;;;;;;;4.90;3.95;;;;;;;2.86;100.00;98212.97;5046279;28;20489;-78
2020/12/07 10:17:07;;;;;;;3.20;1.27;;;;;;;2.90;100.00;98210.81;5043700;28;20060;-76
2020/12/07 10:20:10;;;;;;;11.90;3.08;;;;;;;2.91;100.00;98212.38;5051436;28;20048;-78
2020/12/07 10:23:13;;;;;;;12.15;2.33;;;;;;;2.90;100.00;98213.56;5039405;28;20047;-79
2020/12/07 10:26:16;;;;;;;7.28;2.88;;;;;;;2.89;100.00;98209.31;5051556;28;20369;-79
2020/12/07 10:29:19;;;;;;;11.45;3.67;;;;;;;2.92;100.00;98208.38;5051348;28;20516;-78
2020/12/07 10:32:21;;;;;;;5.18;2.67;;;;;;;3.00;100.00;98204.09;5052560;28;20111;-79
2020/12/07 10:35:24;;;;;;;8.75;3.22;;;;;;;3.06;100.00;98195.97;5044645;28;20056;-80
2020/12/07 10:38:27;;;;;;;6.10;2.67;;;;;;;3.08;100.00;98199.78;5023649;28;20052;-80
2020/12/07 10:41:30;;;;;;;11.45;3.00;;;;;;;3.15;100.00;98193.16;5039971;28;20115;-79
2020/12/07 10:44:33;;;;;;;10.88;1.95;;;;;;;3.17;100.00;98195.44;5043614;28;20044;-80
2020/12/07 10:47:36;;;;;;;6.00;1.75;;;;;;;3.10;100.00;98201.31;5035342;28;20040;-80
2020/12/07 10:50:38;;;;;;;9.82;2.63;;;;;;;3.12;100.00;98196.84;5035453;28;20149;-79
2020/12/07 10:53:41;;;;;;;15.35;3.10;;;;;;;3.20;100.00;98191.78;5035236;28;20057;-79
2020/12/07 10:56:45;;;;;;;7.97;2.53;;;;;;;3.27;100.00;98188.69;5035092;28;20567;-79
2020/12/07 10:59:48;;;;;;;11.68;2.53;;;;;;;3.21;100.00;98183.03;5035781;28;20057;-80
2020/12/07 11:02:50;;;;;;;9.55;3.30;;;;;;;3.17;100.00;98187.19;5024277;28;20624;-79
2020/12/07 11:05:54;;;;;;;7.25;3.05;;;;;;;3.15;100.00;98184.16;5034366;28;20110;-80
2020/12/07 11:08:58;;;;;;;8.90;2.83;;;;;;;3.09;100.00;98178.53;5035378;28;20675;-79
2020/12/07 11:12:04;;;;;;;8.23;2.08;;;;;;;3.08;100.00;98177.00;5022332;28;20056;-80
2020/12/07 11:15:06;;;;;;;11.23;2.85;;;;;;;3.08;100.00;98177.00;5022882;28;20098;-80
2020/12/07 11:18:09;;;;;;;11.85;1.80;;;;;;;3.09;100.00;98178.53;5028237;28;20068;-80
2020/12/07 11:21:15;;;;;;;13.77;4.45;;;;;;;3.05;100.00;98167.69;5052606;28;20045;-81
2020/12/07 11:24:18;;;;;;;5.53;1.75;;;;;;;3.05;100.00;98159.44;5038809;28;20068;-80
2020/12/07 11:27:20;;;;;;;9.68;3.08;;;;;;;3.04;100.00;98160.69;5051917;28;20095;-80
2020/12/07 11:30:23;;;;;;;3.65;1.50;;;;;;;3.03;100.00;98152.91;5054486;28;20102;-81
2020/12/07 11:33:26;;;;;;;7.90;3.28;;;;;;;3.01;100.00;98150.59;5054347;28;20052;-80
2020/12/07 11:36:29;;;;;;;7.07;2.88;;;;;;;3.03;100.00;98152.91;5053331;28;20072;-82
2020/12/07 11:45:43;;;;;;;12.85;2.35;;;;;;;3.03;100.00;98145.41;5047080;28;20048;-81
2020/12/07 11:48:46;;;;;;;10.43;1.88;;;;;;;3.05;100.00;98139.44;5041427;28;20523;-80
2020/12/07 11:51:49;;;;;;;3.42;2.35;;;;;;;3.08;100.00;98133.78;5050926;28;20059;-81
2020/12/07 11:54:52;;;;;;;19.35;4.72;;;;;;;3.10;100.00;98140.81;5045555;28;20082;-82
2020/12/07 11:57:55;;;;;;;18.50;3.78;;;;;;;3.10;100.00;98129.81;5033781;28;20072;-78
2020/12/07 12:00:58;;;;;;;14.82;2.75;;;;;;;3.08;100.00;98133.00;5021599;28;20408;-77
2020/12/07 12:04:03;;;;;;;24.40;4.43;;;;;;;3.15;100.00;98137.41;5034045;28;20056;-79
2020/12/07 12:07:07;;;;;;;27.63;4.97;;;;;;;3.24;100.00;98129.09;5021613;28;20104;-79
2020/12/07 12:10:10;;;;;;;5.07;2.33;;;;;;;3.34;100.00;98128.56;5021546;28;20099;-80
2020/12/07 12:13:12;;;;;;;6.95;2.75;;;;;;;3.41;100.00;98122.72;5034897;28;20052;-79
2020/12/07 12:16:15;;;;;;;16.58;3.30;;;;;;;3.49;100.00;98117.59;5053115;28;20055;-78
2020/12/07 12:19:18;;;;;;;22.63;3.22;;;;;;;3.50;100.00;98121.88;5048286;28;20072;-78
2020/12/07 12:22:21;;;;;;;11.18;3.88;;;;;;;3.50;100.00;98113.63;5035260;28;20638;-78
2020/12/07 12:25:25;;;;;;;5.40;2.28;;;;;;;3.43;100.00;98113.97;5033343;28;20124;-78
2020/12/07 12:28:28;;;;;;;7.53;3.65;;;;;;;3.41;100.00;98111.72;5033311;28;20048;-77
2020/12/07 12:31:32;;;;;;;25.05;6.35;;;;;;;3.44;100.00;98099.78;5033247;28;20052;-80
2020/12/07 12:34:35;;;;;;;16.17;2.45;;;;;;;3.46;100.00;98097.31;5020647;28;20187;-80
2020/12/07 12:37:38;;;;;;;28.73;3.63;;;;;;;3.50;100.00;98102.63;5032894;28;20052;-80
2020/12/07 12:40:41;;;;;;;7.88;1.80;;;;;;;3.55;100.00;98096.47;5032789;28;20107;-79
2020/12/07 12:43:44;;;;;;;9.63;2.70;;;;;;;3.65;100.00;98097.91;5020845;28;20052;-80
2020/12/07 12:46:47;;;;;;;16.48;3.65;;;;;;;3.70;100.00;98100.03;5020817;28;20056;-79
2020/12/07 12:49:50;;;;;;;20.33;4.15;;;;;;;3.78;100.00;98095.66;5020857;28;20048;-80
2020/12/07 12:52:53;;;;;;;17.90;4.22;;;;;;;3.83;100.00;98092.25;5036693;28;20056;-80
2020/12/07 12:55:57;;;;;;;15.13;5.05;;;;;;;3.84;100.00;98096.53;5034505;28;20092;-80
2020/12/07 12:59:00;;;;;;;17.88;4.57;;;;;;;3.89;100.00;98092.34;5036332;28;20115;-80
2020/12/07 13:02:03;;;;;;;9.20;2.80;;;;;;;3.94;100.00;98091.69;5032966;28;20091;-80
2020/12/07 13:05:06;;;;;;;9.80;3.30;;;;;;;3.92;100.00;98083.91;5032961;28;20051;-79
2020/12/07 13:08:09;;;;;;;12.88;4.10;;;;;;;3.88;100.00;98082.59;5033377;28;20053;-80
2020/12/07 13:11:12;;;;;;;6.45;2.63;;;;;;;3.83;100.00;98075.75;5032637;28;20115;-78
2020/12/07 13:14:15;;;;;;;7.47;2.35;;;;;;;3.79;100.00;98075.16;5042767;28;20094;-77
2020/12/07 13:17:21;;;;;;;5.80;2.63;;;;;;;3.79;100.00;98080.66;5057730;28;20507;-78
2020/12/07 13:21:28;;;;;;;12.50;4.15;;;;;;;3.78;100.00;98076.41;5043352;28;20048;-78
2020/12/07 13:24:13;;;;;;;10.18;3.17;;;;;;;3.72;100.00;98075.53;5040255;28;20052;-77
2020/12/07 13:30:31;;;;;;;25.58;4.88;;;;;;;3.65;100.00;98065.66;5049726;28;20094;-80
2020/12/07 13:33:39;;;;;;;22.20;4.78;;;;;;;3.63;100.00;98062.63;5037284;28;20088;-79
2020/12/07 13:36:45;;;;;;;7.50;3.03;;;;;;;3.58;100.00;98057.00;5032516;28;20139;-78
2020/12/07 13:39:48;;;;;;;17.88;4.65;;;;;;;3.47;100.00;98059.53;5051512;28;20048;-78
2020/12/07 13:42:51;;;;;;;17.90;4.15;;;;;;;3.32;100.00;98055.97;5049575;28;20512;-78
2020/12/07 13:45:56;;;;;;;10.27;2.80;;;;;;;3.23;100.00;98059.56;5049407;28;20055;-76
2020/12/07 13:48:59;;;;;;;25.90;3.75;;;;;;;3.27;100.00;98051.16;5043993;28;20083;-80
2020/12/07 13:52:03;;;;;;;16.35;5.97;;;;;;;3.38;100.00;98057.63;5050329;28;20043;-78
2020/12/07 13:55:06;;;;;;;11.98;4.63;;;;;;;3.61;100.00;98047.81;5038320;28;20499;-80
2020/12/07 13:58:08;;;;;;;19.42;4.82;;;;;;;3.72;100.00;98053.50;5051526;28;20052;-81
2020/12/07 14:01:11;;;;;;;23.77;5.28;;;;;;;3.82;100.00;98046.69;5051963;28;20408;-80
2020/12/07 14:07:20;;;;;;;12.80;2.92;;;;;;;3.81;100.00;98040.41;5055552;28;20047;-79
2020/12/07 14:10:23;;;;;;;29.00;5.90;;;;;;;3.71;100.00;98035.47;5055696;28;20069;-79
2020/12/07 14:13:26;;;;;;;16.00;4.00;;;;;;;3.63;100.00;98039.84;5043842;28;20567;-79
2020/12/07 14:16:32;;;;;;;10.70;3.33;;;;;;;3.61;100.00;98053.31;5055818;28;20122;-78
2020/12/07 14:19:50;;;;;;;10.13;3.25;;;;;;;3.57;100.00;98042.47;5043402;28;20076;-79
2020/12/07 14:23:06;;;;;;;30.85;6.18;;;;;;;3.53;100.00;98047.41;5043529;28;20098;-78
2020/12/07 14:42:21;;;;;;;17.35;2.97;;;;;;;3.27;100.00;98062.16;5055453;28;20409;-79
2020/12/07 14:45:33;;;;;;;8.68;3.20;;;;;;;3.24;100.00;98068.59;5043155;28;20103;-79
2020/12/07 14:48:38;;;;;;;14.50;4.30;;;;;;;3.18;100.00;98067.72;5055408;28;20048;-79
2020/12/07 14:51:50;;;;;;;4.38;2.53;;;;;;;3.12;100.00;98066.84;5042650;28;20044;-79
2020/12/07 14:55:00;;;;;;;15.32;1.85;;;;;;;3.07;100.00;98066.25;5042038;28;20132;-79
2020/12/07 15:11:34;;;;;;;17.80;5.38;;;;;;;2.50;100.00;98062.00;5055896;28;20141;-78
2020/12/07 15:14:37;;;;;;;13.02;2.70;;;;;;;2.32;100.00;98062.06;5055002;28;20102;-80
2020/12/07 15:17:40;;;;;;;16.25;4.88;;;;;;;2.21;100.00;98065.31;5055872;28;20135;-82
2020/12/07 15:20:43;;;;;;;9.55;3.88;;;;;;;2.07;100.00;98068.72;5059645;28;20155;-80
2020/12/07 15:23:47;;;;;;;11.68;5.57;;;;;;;1.92;100.00;98061.59;5055594;28;20214;-80
2020/12/07 15:26:50;;;;;;;27.90;5.15;;;;;;;1.79;100.00;98066.50;5054614;28;20067;-80
2020/12/07 15:29:53;;;;;;;17.88;6.38;;;;;;;1.62;100.00;98059.81;5054545;28;20072;-80
2020/12/07 15:32:56;;;;;;;12.05;3.42;;;;;;;1.48;100.00;98066.66;5041816;28;20048;-79